createdAt,value
2022-10-22T00:03:29.916Z,99923.13
2022-10-22T00:08:32.683Z,99923.75
2022-10-22T00:13:35.450Z,99916.09
2022-10-22T00:18:38.673Z,99910.94
2022-10-22T00:23:42.663Z,99904.91
2022-10-22T00:28:45.305Z,99897.19
2022-10-22T00:33:48.258Z,99910.94
2022-10-22T00:38:50.842Z,99894.44
2022-10-22T00:44:02.325Z,99911.88
2022-10-22T00:49:05.118Z,99905.78
2022-10-22T00:54:09.188Z,99898.09
2022-10-22T00:59:13.269Z,99901.59
2022-10-22T01:04:17.064Z,99900.84
2022-10-22T01:09:28.596Z,99903.41
2022-10-22T01:15:11.073Z,99895.41
2022-10-22T01:20:34.513Z,99914.38
2022-10-22T01:26:05.465Z,99904.19
2022-10-22T01:31:11.773Z,99891.28
2022-10-22T01:36:15.813Z,99907.69
2022-10-22T01:41:19.242Z,99905.13
2022-10-22T01:46:24.196Z,99911.13
2022-10-22T01:51:39.058Z,99913.56
2022-10-22T01:56:58.502Z,99912.56
2022-10-22T02:02:22.890Z,99924.84
2022-10-22T02:07:30.994Z,99913.63
2022-10-22T02:12:35.265Z,99923.28
2022-10-22T02:17:39.825Z,99922.56
2022-10-22T02:22:43.063Z,99914.09
2022-10-22T02:27:51.917Z,99927.75
2022-10-22T02:33:02.956Z,99928.63
2022-10-22T02:38:06.442Z,99915.56
2022-10-22T02:43:09.055Z,99926.44
2022-10-22T02:48:12.100Z,99936.59
2022-10-22T02:53:14.666Z,99939.25
2022-10-22T02:58:17.261Z,99938.38
2022-10-22T03:03:19.893Z,99934.97
2022-10-22T03:08:22.549Z,99940.91
2022-10-22T03:13:25.160Z,99941.44
2022-10-22T03:18:27.717Z,99932.13
2022-10-22T03:23:32.029Z,99928.66
2022-10-22T03:28:35.541Z,99932.06
2022-10-22T03:33:38.405Z,99933.88
2022-10-22T03:38:41.884Z,99936.31
2022-10-22T03:43:49.693Z,99927.16
2022-10-22T03:48:52.237Z,99902.25
2022-10-22T03:53:55.365Z,99939.97
2022-10-22T03:58:59.602Z,99942.47
2022-10-22T04:04:02.532Z,99936.38
2022-10-22T04:09:05.166Z,99903.81
2022-10-22T04:14:07.694Z,99939.41
2022-10-22T04:19:10.328Z,99930.94
2022-10-22T04:24:12.845Z,99926.75
2022-10-22T04:29:16.427Z,99931.91
2022-10-22T04:34:19.240Z,99916.19
2022-10-22T04:39:21.986Z,99937.03
2022-10-22T04:44:24.524Z,99942.16
2022-10-22T04:49:27.363Z,99947.28
2022-10-22T04:54:32.265Z,99944.72
2022-10-22T04:59:35.786Z,99945.41
2022-10-22T05:04:38.320Z,99952.53
2022-10-22T05:09:40.891Z,99943.25
2022-10-22T05:14:44.801Z,99952.59
2022-10-22T05:19:47.654Z,99935.16
2022-10-22T05:24:50.373Z,99957.56
2022-10-22T05:29:53.006Z,99967.16
2022-10-22T05:34:55.642Z,99972.16
2022-10-22T05:40:06.783Z,99958.78
2022-10-22T05:45:21.023Z,99965.16
2022-10-22T05:50:23.606Z,99962.69
2022-10-22T05:55:26.433Z,99972.22
2022-10-22T06:00:29.104Z,99933.38
2022-10-22T06:05:36.016Z,99940.38
2022-10-22T06:10:42.881Z,99971.28
2022-10-22T06:15:45.487Z,99967.03
2022-10-22T06:20:48.255Z,99962.94
2022-10-22T06:25:58.196Z,99963.72
2022-10-22T06:31:02.342Z,99942.38
2022-10-22T06:36:09.302Z,99967.38
2022-10-22T06:41:16.572Z,99961.50
2022-10-22T06:46:21.714Z,99973.59
2022-10-22T06:51:25.523Z,99984.78
2022-10-22T06:56:29.537Z,99988.25
2022-10-22T07:01:34.405Z,99967.44
2022-10-22T07:06:37.196Z,99988.91
2022-10-22T07:11:45.198Z,99998.41
2022-10-22T07:16:47.801Z,99998.34
2022-10-22T07:21:50.456Z,100000.97
2022-10-22T07:26:53.734Z,99994.13
2022-10-22T07:31:56.441Z,99991.59
2022-10-22T07:36:59.462Z,99983.97
2022-10-22T07:42:01.981Z,99973.66
2022-10-22T07:47:04.592Z,99988.31
2022-10-22T07:52:07.978Z,99992.63
2022-10-22T07:57:10.556Z,99984.84
2022-10-22T08:02:13.201Z,99988.28
2022-10-22T08:07:15.984Z,99989.94
2022-10-22T08:12:18.961Z,99995.09
2022-10-22T08:17:21.538Z,99994.19
2022-10-22T08:22:24.361Z,99997.69
2022-10-22T08:27:27.013Z,100000.28
2022-10-22T08:32:29.594Z,99992.63
2022-10-22T08:37:32.236Z,99991.75
2022-10-22T08:42:59.184Z,99990.03
2022-10-22T08:48:14.894Z,99985.72
2022-10-22T08:53:26.076Z,99997.78
2022-10-22T08:58:54.182Z,99971.06
2022-10-22T09:04:14.126Z,99993.44
2022-10-22T09:09:18.585Z,99982.28
2022-10-22T09:14:23.652Z,99985.72
2022-10-22T09:19:43.962Z,99959.00
2022-10-22T09:24:53.486Z,99981.44
2022-10-22T09:29:56.355Z,99972.00
2022-10-22T09:34:59.179Z,99978.03
2022-10-22T09:40:06.348Z,99984.00
2022-10-22T09:45:18.553Z,99990.09
2022-10-22T09:50:28.594Z,99983.19
2022-10-22T09:55:31.714Z,99976.31
2022-10-22T10:00:34.285Z,99974.53
2022-10-22T10:05:37.814Z,99974.50
2022-10-22T10:10:50.367Z,99968.50
2022-10-22T10:16:22.288Z,99965.03
2022-10-22T10:21:52.967Z,99966.69
2022-10-22T10:27:23.832Z,99965.03
2022-10-22T10:32:29.467Z,99961.63
2022-10-22T10:37:59.118Z,99959.03
2022-10-22T10:43:16.612Z,99948.72
2022-10-22T10:48:37.049Z,99947.88
2022-10-22T10:54:13.460Z,99953.00
2022-10-22T10:59:43.296Z,99953.00
2022-10-22T11:04:54.489Z,99913.44
2022-10-22T11:10:03.185Z,99926.34
2022-10-22T11:15:22.687Z,99938.38
2022-10-22T11:20:44.112Z,99905.63
2022-10-22T11:25:48.435Z,99928.00
2022-10-22T11:30:58.261Z,99928.84
2022-10-22T11:36:04.124Z,99914.25
2022-10-22T11:41:15.952Z,99911.69
2022-10-22T11:46:18.436Z,99910.84
2022-10-22T11:51:37.017Z,99905.66
2022-10-22T11:56:39.717Z,99904.78
2022-10-22T12:01:43.249Z,99883.28
2022-10-22T12:07:02.907Z,99905.66
2022-10-22T12:12:15.228Z,99906.50
2022-10-22T12:17:19.707Z,99909.97
2022-10-22T12:22:29.721Z,99905.59
2022-10-22T12:27:41.654Z,99872.84
2022-10-22T12:32:44.786Z,99899.56
2022-10-22T12:37:52.853Z,99890.09
2022-10-22T12:43:07.738Z,99865.13
2022-10-22T12:48:25.578Z,99876.34
2022-10-22T12:53:37.923Z,99872.06
2022-10-22T12:58:48.642Z,99876.34
2022-10-22T13:04:04.221Z,99874.66
2022-10-22T13:09:37.398Z,99875.50
2022-10-22T13:14:39.993Z,99869.41
2022-10-22T13:19:54.683Z,99874.53
2022-10-22T13:25:13.197Z,99856.44
2022-10-22T13:30:24.087Z,99855.59
2022-10-22T13:35:34.040Z,99831.44
2022-10-22T13:40:38.942Z,99857.28
2022-10-22T13:45:42.026Z,99845.22
2022-10-22T13:50:45.032Z,99859.84
2022-10-22T13:55:47.932Z,99856.41
2022-10-22T14:01:00.730Z,99810.78
2022-10-22T14:06:03.407Z,99848.69
2022-10-22T14:11:06.493Z,99835.75
2022-10-22T14:16:16.579Z,99841.75
2022-10-22T14:21:20.097Z,99853.78
2022-10-22T14:26:28.199Z,99858.94
2022-10-22T14:31:31.314Z,99832.25
2022-10-22T14:36:33.929Z,99852.88
2022-10-22T14:41:36.990Z,99824.44
2022-10-22T14:46:42.704Z,99832.22
2022-10-22T14:51:45.313Z,99843.41
2022-10-22T14:56:48.088Z,99848.53
2022-10-22T15:01:50.833Z,99849.38
2022-10-22T15:06:56.425Z,99851.94
2022-10-22T15:11:59.029Z,99845.94
2022-10-22T15:17:01.846Z,99844.22
2022-10-22T15:22:05.952Z,99839.00
2022-10-22T15:27:09.011Z,99851.94
2022-10-22T15:32:11.700Z,99815.78
2022-10-22T15:37:14.619Z,99855.34
2022-10-22T15:42:19.065Z,99845.03
2022-10-22T15:47:22.752Z,99852.66
2022-10-22T15:52:25.374Z,99860.38
2022-10-22T15:57:28.041Z,99833.69
2022-10-22T16:02:31.004Z,99855.28
2022-10-22T16:07:33.566Z,99864.72
2022-10-22T16:12:36.216Z,99857.00
2022-10-22T16:17:38.913Z,99856.13
2022-10-22T16:22:41.722Z,99862.06
2022-10-22T16:27:44.526Z,99860.38
2022-10-22T16:32:47.106Z,99863.75
2022-10-22T16:37:49.673Z,99864.63
2022-10-22T16:42:52.605Z,99855.22
2022-10-22T16:47:55.175Z,99833.78
2022-10-22T16:52:57.846Z,99821.72
2022-10-22T16:58:00.372Z,99838.06
2022-10-22T17:03:02.925Z,99838.09
2022-10-22T17:08:05.676Z,99831.19
2022-10-22T17:13:08.288Z,99803.66
2022-10-22T17:18:13.221Z,99829.47
2022-10-22T17:23:19.201Z,99826.88
2022-10-22T17:28:22.343Z,99815.59
2022-10-22T17:33:25.046Z,99820.78
2022-10-22T17:38:28.239Z,99818.22
2022-10-22T17:43:31.287Z,99812.16
2022-10-22T17:48:34.845Z,99808.75
2022-10-22T17:53:40.961Z,99794.16
2022-10-22T17:58:44.021Z,99801.06
2022-10-22T18:03:46.903Z,99784.69
2022-10-22T18:08:49.601Z,99787.25
2022-10-22T18:13:54.749Z,99788.13
2022-10-22T18:18:58.512Z,99775.25
2022-10-22T18:24:01.214Z,99749.38
2022-10-22T18:29:03.851Z,99768.41
2022-10-22T18:34:06.678Z,99770.97
2022-10-22T18:39:14.562Z,99762.38
2022-10-22T18:44:18.053Z,99770.03
2022-10-22T18:49:20.723Z,99755.38
2022-10-22T18:54:24.359Z,99764.09
2022-10-22T18:59:28.301Z,99741.66
2022-10-22T19:04:37.023Z,99754.59
2022-10-22T19:09:40.984Z,99760.59
2022-10-22T19:14:43.957Z,99752.06
2022-10-22T19:19:46.701Z,99757.16
2022-10-22T19:24:51.357Z,99753.69
2022-10-22T19:29:53.875Z,99734.75
2022-10-22T19:34:57.041Z,99755.41
2022-10-22T19:39:59.892Z,99739.88
2022-10-22T19:45:02.734Z,99722.69
2022-10-22T19:50:06.028Z,99753.69
2022-10-22T19:55:10.288Z,99745.97
2022-10-22T20:00:13.253Z,99757.13
2022-10-22T20:05:17.493Z,99750.25
2022-10-22T20:10:20.166Z,99757.94
2022-10-22T20:15:22.802Z,99758.84
2022-10-22T20:20:26.616Z,99758.84
2022-10-22T20:25:29.440Z,99745.13
2022-10-22T20:30:32.137Z,99755.38
2022-10-22T20:35:36.257Z,99747.69
2022-10-22T20:40:38.843Z,99748.53
2022-10-22T20:45:41.555Z,99746.84
2022-10-22T20:50:44.173Z,99741.78
2022-10-22T20:55:48.084Z,99721.03
2022-10-22T21:00:51.433Z,99733.97
2022-10-22T21:05:54.020Z,99726.22
2022-10-22T21:10:57.158Z,99729.69
2022-10-22T21:15:59.839Z,99727.94
2022-10-22T21:21:04.465Z,99723.66
2022-10-22T21:26:07.123Z,99693.50
2022-10-22T21:31:11.513Z,99705.63
2022-10-22T21:36:14.147Z,99706.50
2022-10-22T21:41:18.909Z,99697.91
2022-10-22T21:46:26.753Z,99697.88
2022-10-22T21:51:31.435Z,99691.06
2022-10-22T21:56:35.517Z,99664.47
2022-10-22T22:01:38.216Z,99682.50
2022-10-22T22:06:40.830Z,99684.19
2022-10-22T22:11:43.402Z,99647.22
2022-10-22T22:16:45.959Z,99671.31
2022-10-22T22:21:48.501Z,99667.03
2022-10-22T22:26:51.138Z,99651.53
2022-10-22T22:31:53.754Z,99654.09
2022-10-22T22:36:56.471Z,99646.38
2022-10-22T22:41:59.135Z,99646.41
2022-10-22T22:47:01.860Z,99639.56
2022-10-22T22:52:04.807Z,99631.84
2022-10-22T22:57:07.554Z,99615.53
2022-10-22T23:02:10.416Z,99624.13
2022-10-22T23:07:13.164Z,99606.97
2022-10-22T23:12:15.767Z,99612.94
2022-10-22T23:17:19.465Z,99574.22
2022-10-22T23:22:22.059Z,99593.94
2022-10-22T23:27:24.659Z,99587.06
2022-10-22T23:32:27.291Z,99560.44
2022-10-22T23:37:29.844Z,99576.78
2022-10-22T23:42:32.610Z,99573.34
2022-10-22T23:47:35.204Z,99576.00
2022-10-22T23:52:37.846Z,99563.06
2022-10-22T23:57:40.405Z,99558.75
